Time,TemperatureF,DewpointF,PressureIn,WindDirection,WindDirectionDegrees,WindSpeedMPH,WindSpeedGustMPH,Humidity,HourlyPrecipIn,Conditions,Clouds,dailyrainin,SoftwareType,DateUTC
2013-06-17 00:01:00,69.9,69.3,29.97,South,174,2.0,5.0,98,0.00,,SKC,0.34,VWS V13.00,2013-06-17 05:01:00,
2013-06-17 00:06:00,69.9,69.0,29.96,SE,144,1.0,5.0,97,0.00,,SKC,0.00,VWS V13.00,2013-06-17 05:06:00,
2013-06-17 00:11:00,69.9,69.0,29.96,SSE,158,2.0,5.0,97,0.00,,SKC,0.00,VWS V13.00,2013-06-17 05:11:00,
2013-06-17 00:16:00,69.9,69.0,29.96,SSE,161,0.0,5.0,97,0.00,,SKC,0.00,VWS V13.00,2013-06-17 05:16:00,
2013-06-17 00:21:00,69.9,69.0,29.96,South,172,3.0,6.0,97,0.00,,SKC,0.00,VWS V13.00,2013-06-17 05:21:00,
2013-06-17 00:26:00,70.0,69.1,29.96,SSE,163,4.0,6.0,97,0.00,,SKC,0.00,VWS V13.00,2013-06-17 05:26:00,
2013-06-17 00:31:00,70.0,69.1,29.96,South,182,2.0,6.0,97,0.00,,SKC,0.00,VWS V13.00,2013-06-17 05:31:00,
2013-06-17 00:36:00,69.9,69.0,29.96,South,182,1.0,5.0,97,0.00,,SKC,0.00,VWS V13.00,2013-06-17 05:36:00,
2013-06-17 00:41:00,69.9,69.0,29.97,South,182,1.0,5.0,97,0.00,,SKC,0.00,VWS V13.00,2013-06-17 05:41:00,
2013-06-17 00:46:00,69.9,69.0,29.97,South,182,0.0,5.0,97,0.00,,SKC,0.00,VWS V13.00,2013-06-17 05:46:00,
2013-06-17 00:50:00,69.9,69.0,29.97,East,92,1.0,5.0,97,0.00,,SKC,0.00,VWS V13.00,2013-06-17 05:50:00,
2013-06-17 00:55:00,69.9,69.0,29.97,East,84,1.0,5.0,97,0.00,,SKC,0.00,VWS V13.00,2013-06-17 05:55:00,
2013-06-17 01:00:00,69.9,69.0,29.97,East,84,0.0,5.0,97,0.00,,SKC,0.00,VWS V13.00,2013-06-17 06:00:00,
2013-06-17 01:05:00,69.8,68.9,29.97,East,84,0.0,0.0,97,0.00,,SKC,0.00,VWS V13.00,2013-06-17 06:05:00,
2013-06-17 07:36:00,71.6,71.0,29.96,South,184,4.0,8.0,98,0.00,,SKC,0.01,VWS V13.00,2013-06-17 12:36:00,
2013-06-17 07:41:00,71.6,71.0,29.96,South,191,0.0,8.0,98,0.00,,SKC,0.01,VWS V13.00,2013-06-17 12:41:00,
2013-06-17 07:46:00,71.9,71.3,29.96,South,191,0.0,8.0,98,0.00,,SKC,0.01,VWS V13.00,2013-06-17 12:46:00,
2013-06-17 07:51:00,72.2,71.6,29.96,SSW,197,0.0,8.0,98,0.00,,SKC,0.01,VWS V13.00,2013-06-17 12:51:00,
2013-06-17 07:56:00,72.6,72.0,29.97,South,180,1.0,8.0,98,0.00,,SKC,0.01,VWS V13.00,2013-06-17 12:56:00,
2013-06-17 08:01:00,72.6,71.7,29.97,South,173,7.0,8.0,97,0.00,,SKC,0.01,VWS V13.00,2013-06-17 13:01:00,
2013-06-17 08:06:00,72.6,71.7,29.97,South,176,1.0,7.0,97,0.00,,SKC,0.01,VWS V13.00,2013-06-17 13:06:00,
2013-06-17 08:11:00,72.8,71.9,29.97,SSE,150,6.0,7.0,97,0.00,,SKC,0.01,VWS V13.00,2013-06-17 13:11:00,
2013-06-17 08:16:00,73.1,72.2,29.97,South,180,4.0,7.0,97,0.00,,SKC,0.01,VWS V13.00,2013-06-17 13:16:00,
2013-06-17 08:20:00,73.4,72.5,29.97,South,183,4.0,7.0,97,0.00,,SKC,0.01,VWS V13.00,2013-06-17 13:20:00,
2013-06-17 08:25:00,73.7,72.8,29.96,South,182,1.0,7.0,97,0.00,,SKC,0.01,VWS V13.00,2013-06-17 13:25:00,
2013-06-17 08:30:00,73.9,72.7,29.96,SSE,161,4.0,9.0,96,0.00,,SKC,0.01,VWS V13.00,2013-06-17 13:30:00,
2013-06-17 08:35:00,73.9,72.7,29.96,SSE,162,4.0,9.0,96,0.00,,SKC,0.01,VWS V13.00,2013-06-17 13:35:00,
2013-06-17 08:40:00,73.9,72.7,29.96,SSE,157,3.0,9.0,96,0.00,,SKC,0.01,VWS V13.00,2013-06-17 13:40:00,
2013-06-17 08:45:00,74.1,72.9,29.97,SSW,194,4.0,9.0,96,0.00,,SKC,0.01,VWS V13.00,2013-06-17 13:45:00,
2013-06-17 08:50:00,74.2,72.7,29.97,South,182,2.0,9.0,95,0.00,,SKC,0.01,VWS V13.00,2013-06-17 13:50:00,
2013-06-17 08:55:00,74.4,72.9,29.97,SSW,199,1.0,9.0,95,0.00,,SKC,0.01,VWS V13.00,2013-06-17 13:55:00,
2013-06-17 09:00:00,74.4,72.9,29.97,South,178,0.0,9.0,95,0.00,,SKC,0.01,VWS V13.00,2013-06-17 14:00:00,
2013-06-17 09:05:00,74.6,73.1,29.97,South,171,2.0,6.0,95,0.00,,SKC,0.01,VWS V13.00,2013-06-17 14:05:00,
2013-06-17 09:10:00,74.9,73.4,29.97,South,184,2.0,6.0,95,0.00,,SKC,0.01,VWS V13.00,2013-06-17 14:10:00,
2013-06-17 09:15:00,75.0,73.2,29.97,SSW,196,4.0,7.0,94,0.00,,SKC,0.01,VWS V13.00,2013-06-17 14:15:00,
2013-06-17 09:20:00,75.0,73.2,29.98,SSW,213,3.0,8.0,94,0.00,,SKC,0.01,VWS V13.00,2013-06-17 14:20:00,
2013-06-17 09:25:00,75.1,73.3,29.97,South,171,5.0,8.0,94,0.00,,SKC,0.01,VWS V13.00,2013-06-17 14:25:00,
2013-06-17 09:30:00,75.1,73.3,29.97,South,184,4.0,8.0,94,0.00,,SKC,0.01,VWS V13.00,2013-06-17 14:30:00,
2013-06-17 09:35:00,75.7,73.8,29.97,SSE,151,6.0,7.0,94,0.00,,SKC,0.01,VWS V13.00,2013-06-17 14:35:00,
2013-06-17 09:40:00,76.2,74.0,29.97,SSE,155,6.0,7.0,93,0.00,,SKC,0.01,VWS V13.00,2013-06-17 14:40:00,
2013-06-17 09:45:00,76.8,74.6,29.97,SSE,164,0.0,7.0,93,0.00,,SKC,0.01,VWS V13.00,2013-06-17 14:45:00,
2013-06-17 09:50:00,77.3,74.5,29.97,SSW,211,5.0,7.0,91,0.00,,SKC,0.01,VWS V13.00,2013-06-17 14:50:00,
2013-06-17 09:55:00,77.9,75.7,29.96,SSW,192,1.0,7.0,93,0.00,,SKC,0.01,VWS V13.00,2013-06-17 14:55:00,
2013-06-17 10:00:00,78.4,74.9,29.96,SW,220,0.0,7.0,89,0.00,,SKC,0.01,VWS V13.00,2013-06-17 15:00:00,
2013-06-17 10:05:00,78.8,75.3,29.97,SSW,201,2.0,5.0,89,0.00,,SKC,0.01,VWS V13.00,2013-06-17 15:05:00,
2013-06-17 10:10:00,79.0,75.5,29.97,SW,217,1.0,6.0,89,0.00,,SKC,0.01,VWS V13.00,2013-06-17 15:10:00,
2013-06-17 10:15:00,79.2,75.3,29.96,SSW,194,1.0,6.0,88,0.00,,SKC,0.01,VWS V13.00,2013-06-17 15:15:00,
2013-06-17 10:20:00,79.6,76.1,29.96,SW,218,4.0,6.0,89,0.00,,SKC,0.01,VWS V13.00,2013-06-17 15:20:00,
2013-06-17 10:25:00,80.0,75.4,29.96,SSE,166,1.0,6.0,86,0.00,,SKC,0.01,VWS V13.00,2013-06-17 15:25:00,
2013-06-17 10:30:00,80.3,75.0,29.96,SW,232,1.0,6.0,84,0.00,,SKC,0.01,VWS V13.00,2013-06-17 15:30:00,
2013-06-17 10:35:00,80.5,75.9,29.96,SSW,201,4.0,5.0,86,0.00,,SKC,0.01,VWS V13.00,2013-06-17 15:35:00,
2013-06-17 10:40:00,80.9,76.0,29.95,SSW,196,4.0,7.0,85,0.00,,SKC,0.01,VWS V13.00,2013-06-17 15:40:00,
2013-06-17 10:45:00,81.3,77.1,29.96,West,268,2.0,7.0,87,0.00,,SKC,0.01,VWS V13.00,2013-06-17 15:45:00,
2013-06-17 10:50:00,81.7,76.4,29.96,WSW,239,1.0,7.0,84,0.00,,SKC,0.01,VWS V13.00,2013-06-17 15:50:00,
2013-06-17 10:55:00,82.1,76.4,29.96,WSW,248,1.0,7.0,83,0.00,,SKC,0.01,VWS V13.00,2013-06-17 15:55:00,
2013-06-17 11:00:00,82.5,76.1,29.96,WSW,258,2.0,7.0,81,0.00,,SKC,0.01,VWS V13.00,2013-06-17 16:00:00,
2013-06-17 11:05:00,82.7,76.3,29.96,WSW,242,0.0,4.0,81,0.00,,SKC,0.01,VWS V13.00,2013-06-17 16:05:00,
2013-06-17 11:10:00,83.0,76.9,29.96,SE,140,4.0,6.0,82,0.00,,SKC,0.01,VWS V13.00,2013-06-17 16:10:00,
2013-06-17 11:15:00,83.5,77.4,29.96,SW,216,1.0,6.0,82,0.00,,SKC,0.01,VWS V13.00,2013-06-17 16:15:00,
2013-06-17 11:20:00,83.7,77.2,29.95,SW,225,4.0,7.0,81,0.00,,SKC,0.01,VWS V13.00,2013-06-17 16:20:00,
2013-06-17 11:25:00,84.1,76.5,29.95,SW,227,1.0,7.0,78,0.00,,SKC,0.01,VWS V13.00,2013-06-17 16:25:00,
2013-06-17 11:30:00,83.9,76.3,29.95,South,171,2.0,7.0,78,0.00,,SKC,0.01,VWS V13.00,2013-06-17 16:30:00,
2013-06-17 11:35:00,84.1,76.1,29.94,SSW,205,0.0,2.0,77,0.00,,SKC,0.01,VWS V13.00,2013-06-17 16:35:00,
2013-06-17 11:40:00,84.6,77.4,29.94,SW,214,2.0,6.0,79,0.00,,SKC,0.01,VWS V13.00,2013-06-17 16:40:00,
2013-06-17 11:45:00,84.2,77.0,29.94,SW,215,5.0,7.0,79,0.00,,SKC,0.01,VWS V13.00,2013-06-17 16:45:00,
2013-06-17 11:50:00,84.5,76.5,29.94,WSW,249,0.0,7.0,77,0.00,,SKC,0.01,VWS V13.00,2013-06-17 16:50:00,
2013-06-17 11:55:00,84.1,74.5,29.94,WSW,257,4.0,7.0,73,0.00,,SKC,0.01,VWS V13.00,2013-06-17 16:55:00,
2013-06-17 12:00:00,83.4,75.4,29.94,NNW,340,4.0,7.0,77,0.00,,SKC,0.01,VWS V13.00,2013-06-17 17:00:00,
2013-06-17 12:05:00,82.2,75.8,29.94,NW,325,4.0,7.0,81,0.00,,SKC,0.01,VWS V13.00,2013-06-17 17:05:00,
2013-06-17 12:10:00,81.4,75.7,29.93,NNW,340,2.0,9.0,83,0.00,,SKC,0.01,VWS V13.00,2013-06-17 17:10:00,
2013-06-17 12:15:00,80.4,75.1,29.93,NNW,345,1.0,9.0,84,0.00,,SKC,0.01,VWS V13.00,2013-06-17 17:15:00,
2013-06-17 12:20:00,79.4,74.2,29.94,NNW,333,4.0,9.0,84,0.00,,SKC,0.01,VWS V13.00,2013-06-17 17:20:00,
2013-06-17 12:25:00,78.6,73.7,29.94,NNW,340,0.0,9.0,85,0.00,,SKC,0.01,VWS V13.00,2013-06-17 17:25:00,
2013-06-17 12:30:00,78.1,73.6,29.93,North,5,7.0,9.0,86,0.00,,SKC,0.01,VWS V13.00,2013-06-17 17:30:00,
2013-06-17 12:35:00,77.5,73.7,29.93,NW,321,0.0,5.0,88,0.00,,SKC,0.01,VWS V13.00,2013-06-17 17:35:00,
2013-06-17 12:40:00,77.1,72.9,29.93,ENE,78,5.0,6.0,87,0.02,,SKC,0.03,VWS V13.00,2013-06-17 17:40:00,
2013-06-17 12:45:00,76.5,73.0,29.93,East,92,6.0,9.0,89,0.03,,SKC,0.04,VWS V13.00,2013-06-17 17:45:00,
2013-06-17 12:50:00,75.8,73.0,29.93,East,85,5.0,9.0,91,0.05,,SKC,0.06,VWS V13.00,2013-06-17 17:50:00,
2013-06-17 12:55:00,75.2,72.4,29.95,SE,135,4.0,9.0,91,0.05,,SKC,0.06,VWS V13.00,2013-06-17 17:55:00,
2013-06-17 13:00:00,74.7,71.9,29.97,SSE,151,0.0,9.0,91,0.08,,SKC,0.09,VWS V13.00,2013-06-17 18:00:00,
2013-06-17 13:05:00,74.4,72.2,29.98,SW,229,6.0,11.0,93,0.11,,SKC,0.12,VWS V13.00,2013-06-17 18:05:00,
2013-06-17 13:10:00,73.4,70.6,29.98,SSW,198,7.0,23.0,91,0.31,,SKC,0.32,VWS V13.00,2013-06-17 18:10:00,
2013-06-17 13:15:00,71.7,68.0,29.96,SSE,159,8.0,23.0,88,0.44,,SKC,0.45,VWS V13.00,2013-06-17 18:15:00,
2013-06-17 13:20:00,71.1,68.3,29.95,WNW,300,1.0,23.0,91,0.47,,SKC,0.49,VWS V13.00,2013-06-17 18:20:00,
2013-06-17 13:25:00,70.9,69.1,29.94,SE,144,4.0,23.0,94,0.51,,SKC,0.52,VWS V13.00,2013-06-17 18:25:00,
2013-06-17 13:30:00,70.9,69.4,29.94,SSE,150,5.0,23.0,95,0.51,,SKC,0.52,VWS V13.00,2013-06-17 18:30:00,
2013-06-17 13:35:00,71.1,69.9,29.94,SSE,160,1.0,4.0,96,0.51,,SKC,0.52,VWS V13.00,2013-06-17 18:35:00,
2013-06-17 13:40:00,71.8,70.6,29.94,SE,134,2.0,4.0,96,0.51,,SKC,0.52,VWS V13.00,2013-06-17 18:40:00,
2013-06-17 13:45:00,73.0,71.5,29.93,SSE,161,1.0,6.0,95,0.51,,SKC,0.52,VWS V13.00,2013-06-17 18:45:00,
2013-06-17 13:50:00,73.8,71.7,29.94,SE,142,1.0,6.0,93,0.51,,SKC,0.52,VWS V13.00,2013-06-17 18:50:00,
2013-06-17 13:55:00,74.0,71.2,29.94,SE,141,6.0,7.0,91,0.51,,SKC,0.52,VWS V13.00,2013-06-17 18:55:00,
2013-06-17 14:00:00,73.8,71.0,29.94,ESE,112,2.0,7.0,91,0.51,,SKC,0.52,VWS V13.00,2013-06-17 19:00:00,
2013-06-17 14:05:00,73.7,70.9,29.95,ENE,75,4.0,4.0,91,0.42,,SKC,0.52,VWS V13.00,2013-06-17 19:05:00,
2013-06-17 14:10:00,73.7,70.6,29.95,ENE,74,0.0,5.0,90,0.42,,SKC,0.52,VWS V13.00,2013-06-17 19:10:00,
2013-06-17 14:15:00,73.7,70.9,29.95,East,90,0.0,5.0,91,0.42,,SKC,0.52,VWS V13.00,2013-06-17 19:15:00,
2013-06-17 14:20:00,73.7,70.9,29.95,North,350,4.0,5.0,91,0.42,,SKC,0.52,VWS V13.00,2013-06-17 19:20:00,
2013-06-17 14:25:00,73.7,71.2,29.97,WNW,286,9.0,9.0,92,0.42,,SKC,0.52,VWS V13.00,2013-06-17 19:25:00,
2013-06-17 14:30:00,73.1,69.7,29.98,NNW,335,11.0,18.0,89,0.42,,SKC,0.52,VWS V13.00,2013-06-17 19:30:00,
2013-06-17 14:35:00,72.4,68.3,29.98,NW,316,8.0,12.0,87,0.00,,SKC,0.52,VWS V13.00,2013-06-17 19:35:00,
2013-06-17 14:40:00,71.8,68.1,29.97,North,360,6.0,12.0,88,0.02,,SKC,0.56,VWS V13.00,2013-06-17 19:40:00,
2013-06-17 14:45:00,71.0,67.9,29.96,NE,46,2.0,13.0,90,0.06,,SKC,0.58,VWS V13.00,2013-06-17 19:45:00,
2013-06-17 14:50:00,70.3,67.9,29.96,NE,41,1.0,13.0,92,0.06,,SKC,0.58,VWS V13.00,2013-06-17 19:50:00,
2013-06-17 14:55:00,69.8,67.4,29.95,ENE,74,0.0,13.0,92,0.06,,SKC,0.58,VWS V13.00,2013-06-17 19:55:00,
2013-06-17 15:00:00,69.5,67.7,29.95,ENE,69,2.0,13.0,94,0.06,,SKC,0.58,VWS V13.00,2013-06-17 20:00:00,
2013-06-17 15:05:00,69.4,67.6,29.94,ENE,69,0.0,1.0,94,0.06,,SKC,0.58,VWS V13.00,2013-06-17 20:05:00,
2013-06-17 15:10:00,69.3,67.2,29.94,ENE,69,0.0,1.0,93,0.06,,SKC,0.58,VWS V13.00,2013-06-17 20:10:00,
2013-06-17 15:15:00,69.3,67.5,29.94,ENE,69,0.0,1.0,94,0.06,,SKC,0.58,VWS V13.00,2013-06-17 20:15:00,
2013-06-17 15:20:00,69.4,67.6,29.94,ENE,69,0.0,1.0,94,0.06,,SKC,0.58,VWS V13.00,2013-06-17 20:20:00,
2013-06-17 15:25:00,69.5,68.0,29.94,ENE,69,0.0,1.0,95,0.06,,SKC,0.58,VWS V13.00,2013-06-17 20:25:00,
2013-06-17 15:30:00,69.7,68.2,29.94,ENE,69,0.0,1.0,95,0.06,,SKC,0.58,VWS V13.00,2013-06-17 20:30:00,
2013-06-17 15:35:00,69.8,68.3,29.95,ENE,69,0.0,0.0,95,0.06,,SKC,0.58,VWS V13.00,2013-06-17 20:35:00,
2013-06-17 15:40:00,70.1,68.9,29.95,ENE,69,0.0,0.0,96,0.06,,SKC,0.58,VWS V13.00,2013-06-17 20:40:00,
2013-06-17 15:44:00,70.2,69.0,29.95,ENE,76,0.0,0.0,96,0.06,,SKC,0.59,VWS V13.00,2013-06-17 20:44:00,
2013-06-17 15:49:00,70.2,68.7,29.95,SE,135,0.0,2.0,95,0.07,,SKC,0.59,VWS V13.00,2013-06-17 20:49:00,
2013-06-17 15:54:00,70.2,69.0,29.94,South,173,4.0,4.0,96,0.07,,SKC,0.59,VWS V13.00,2013-06-17 20:54:00,
2013-06-17 15:59:00,70.3,69.1,29.94,South,173,0.0,4.0,96,0.07,,SKC,0.59,VWS V13.00,2013-06-17 20:59:00,
2013-06-17 16:04:00,70.3,69.1,29.94,South,173,1.0,2.0,96,0.01,,SKC,0.59,VWS V13.00,2013-06-17 21:04:00,
2013-06-17 16:09:00,70.4,69.2,29.93,South,172,3.0,4.0,96,0.01,,SKC,0.59,VWS V13.00,2013-06-17 21:09:00,
2013-06-17 16:15:00,70.3,68.8,29.93,SSE,158,2.0,5.0,95,0.01,,SKC,0.59,VWS V13.00,2013-06-17 21:15:00,
2013-06-17 16:19:00,70.4,69.2,29.93,SSE,155,2.0,5.0,96,0.01,,SKC,0.59,VWS V13.00,2013-06-17 21:19:00,
2013-06-17 16:24:00,70.6,69.4,29.93,South,174,3.0,5.0,96,0.01,,SKC,0.59,VWS V13.00,2013-06-17 21:24:00,
2013-06-17 16:29:00,70.8,69.3,29.93,SSE,155,1.0,5.0,95,0.01,,SKC,0.59,VWS V13.00,2013-06-17 21:29:00,
2013-06-17 16:34:00,71.2,70.0,29.93,SSE,155,1.0,5.0,96,0.01,,SKC,0.59,VWS V13.00,2013-06-17 21:34:00,
2013-06-17 16:39:00,71.8,70.6,29.93,South,169,3.0,5.0,96,0.01,,SKC,0.59,VWS V13.00,2013-06-17 21:39:00,
2013-06-17 16:44:00,72.3,70.5,29.92,SSE,160,0.0,5.0,94,0.01,,SKC,0.59,VWS V13.00,2013-06-17 21:44:00,
2013-06-17 16:49:00,73.0,70.9,29.92,SSE,147,1.0,5.0,93,0.01,,SKC,0.59,VWS V13.00,2013-06-17 21:49:00,
2013-06-17 16:54:00,73.6,70.8,29.92,ESE,123,2.0,5.0,91,0.01,,SKC,0.59,VWS V13.00,2013-06-17 21:54:00,
2013-06-17 16:59:00,74.1,71.3,29.91,SSE,160,2.0,5.0,91,0.01,,SKC,0.59,VWS V13.00,2013-06-17 21:59:00,
2013-06-17 17:04:00,74.6,71.2,29.91,SSE,160,0.0,2.0,89,0.00,,SKC,0.59,VWS V13.00,2013-06-17 22:04:00,
2013-06-17 17:09:00,75.0,71.2,29.91,SSE,160,0.0,2.0,88,0.00,,SKC,0.59,VWS V13.00,2013-06-17 22:09:00,
2013-06-17 17:14:00,75.4,71.3,29.91,SSE,159,0.0,2.0,87,0.00,,SKC,0.59,VWS V13.00,2013-06-17 22:14:00,
2013-06-17 17:19:00,75.5,71.0,29.91,SSE,159,0.0,2.0,86,0.00,,SKC,0.59,VWS V13.00,2013-06-17 22:19:00,
2013-06-17 17:24:00,75.4,71.3,29.91,SSE,159,0.0,2.0,87,0.00,,SKC,0.59,VWS V13.00,2013-06-17 22:24:00,
2013-06-17 17:29:00,75.4,71.6,29.90,SSE,159,0.0,2.0,88,0.00,,SKC,0.59,VWS V13.00,2013-06-17 22:29:00,
2013-06-17 17:34:00,75.5,71.4,29.90,SSE,159,0.0,1.0,87,0.00,,SKC,0.59,VWS V13.00,2013-06-17 22:34:00,
2013-06-17 17:39:00,75.9,71.4,29.90,NNE,23,3.0,5.0,86,0.00,,SKC,0.59,VWS V13.00,2013-06-17 22:39:00,
2013-06-17 17:44:00,76.2,69.9,29.91,NNE,32,0.0,5.0,81,0.00,,SKC,0.59,VWS V13.00,2013-06-17 22:44:00,
2013-06-17 17:49:00,76.4,70.5,29.91,NNE,32,0.0,5.0,82,0.00,,SKC,0.59,VWS V13.00,2013-06-17 22:49:00,
2013-06-17 17:54:00,76.4,70.5,29.91,South,173,0.0,5.0,82,0.00,,SKC,0.59,VWS V13.00,2013-06-17 22:54:00,
2013-06-17 17:59:00,76.3,71.1,29.91,South,173,0.0,5.0,84,0.00,,SKC,0.59,VWS V13.00,2013-06-17 22:59:00,
2013-06-17 18:04:00,76.0,71.5,29.91,South,173,0.0,2.0,86,0.00,,SKC,0.59,VWS V13.00,2013-06-17 23:04:00,
2013-06-17 18:09:00,75.6,71.5,29.91,South,173,0.0,2.0,87,0.00,,SKC,0.59,VWS V13.00,2013-06-17 23:09:00,
2013-06-17 18:14:00,75.3,71.5,29.91,South,173,0.0,2.0,88,0.00,,SKC,0.59,VWS V13.00,2013-06-17 23:14:00,
2013-06-17 18:19:00,75.0,71.5,29.92,South,173,0.0,2.0,89,0.00,,SKC,0.59,VWS V13.00,2013-06-17 23:19:00,
2013-06-17 18:24:00,74.6,71.2,29.92,South,173,0.0,2.0,89,0.00,,SKC,0.59,VWS V13.00,2013-06-17 23:24:00,
2013-06-17 18:29:00,74.4,71.3,29.92,South,173,0.0,2.0,90,0.00,,SKC,0.59,VWS V13.00,2013-06-17 23:29:00,
2013-06-17 18:34:00,74.2,71.1,29.92,South,184,1.0,4.0,90,0.00,,SKC,0.59,VWS V13.00,2013-06-17 23:34:00,
2013-06-17 18:39:00,74.0,70.9,29.91,South,171,1.0,4.0,90,0.00,,SKC,0.59,VWS V13.00,2013-06-17 23:39:00,
2013-06-17 18:44:00,73.8,70.7,29.91,South,171,0.0,4.0,90,0.00,,SKC,0.59,VWS V13.00,2013-06-17 23:44:00,
2013-06-17 18:49:00,73.7,71.2,29.91,South,171,0.0,4.0,92,0.00,,SKC,0.59,VWS V13.00,2013-06-17 23:49:00,
2013-06-17 18:54:00,73.6,71.1,29.90,South,171,0.0,4.0,92,0.00,,SKC,0.59,VWS V13.00,2013-06-17 23:54:00,
2013-06-17 18:59:00,73.6,71.5,29.90,South,171,0.0,4.0,93,0.00,,SKC,0.59,VWS V13.00,2013-06-17 23:59:00,
2013-06-17 19:04:00,73.6,71.5,29.90,South,171,1.0,2.0,93,0.00,,SKC,0.59,VWS V13.00,2013-06-18 00:04:00,
2013-06-17 19:09:00,73.5,71.0,29.91,SSW,207,2.0,7.0,92,0.00,,SKC,0.59,VWS V13.00,2013-06-18 00:09:00,
2013-06-17 19:14:00,73.3,71.2,29.92,SSW,208,3.0,7.0,93,0.00,,SKC,0.59,VWS V13.00,2013-06-18 00:14:00,
2013-06-17 19:19:00,73.2,71.1,29.92,WSW,252,6.0,7.0,93,0.00,,SKC,0.59,VWS V13.00,2013-06-18 00:19:00,
2013-06-17 19:24:00,73.2,71.4,29.93,WSW,254,5.0,7.0,94,0.00,,SKC,0.59,VWS V13.00,2013-06-18 00:24:00,
2013-06-17 19:30:00,72.6,70.2,29.94,West,275,5.0,15.0,92,0.06,,SKC,0.66,VWS V13.00,2013-06-18 00:30:00,
2013-06-17 19:35:00,71.3,68.9,29.94,SW,234,0.0,8.0,92,0.17,,SKC,0.78,VWS V13.00,2013-06-18 00:35:00,
2013-06-17 19:40:00,70.4,68.0,29.94,SSW,192,0.0,8.0,92,0.26,,SKC,0.86,VWS V13.00,2013-06-18 00:40:00,
2013-06-17 19:45:00,69.8,67.7,29.94,WSW,244,0.0,8.0,93,0.29,,SKC,0.88,VWS V13.00,2013-06-18 00:45:00,
2013-06-17 19:50:00,69.6,68.1,29.94,WSW,244,0.0,8.0,95,0.30,,SKC,0.90,VWS V13.00,2013-06-18 00:50:00,
2013-06-17 19:55:00,69.4,67.9,29.94,WSW,244,0.0,8.0,95,0.32,,SKC,0.91,VWS V13.00,2013-06-18 00:55:00,
2013-06-17 20:00:00,69.3,67.8,29.93,WSW,244,0.0,8.0,95,0.33,,SKC,0.92,VWS V13.00,2013-06-18 01:00:00,
2013-06-17 20:05:00,69.1,67.9,29.92,SSE,167,0.0,1.0,96,0.34,,SKC,0.93,VWS V13.00,2013-06-18 01:05:00,
2013-06-17 20:10:00,69.0,67.8,29.92,SSE,167,0.0,1.0,96,0.34,,SKC,0.93,VWS V13.00,2013-06-18 01:10:00,
2013-06-17 20:15:00,68.8,67.6,29.92,SSE,163,1.0,3.0,96,0.34,,SKC,0.93,VWS V13.00,2013-06-18 01:15:00,
2013-06-17 20:20:00,68.8,67.9,29.92,SSE,163,1.0,4.0,97,0.35,,SKC,0.94,VWS V13.00,2013-06-18 01:20:00,
2013-06-17 20:25:00,68.8,67.9,29.91,SSE,157,0.0,4.0,97,0.35,,SKC,0.94,VWS V13.00,2013-06-18 01:25:00,
2013-06-17 20:30:00,68.8,67.9,29.91,SSE,157,0.0,4.0,97,0.36,,SKC,0.95,VWS V13.00,2013-06-18 01:30:00,
2013-06-17 20:35:00,68.7,67.8,29.91,SSE,156,1.0,3.0,97,0.26,,SKC,0.96,VWS V13.00,2013-06-18 01:35:00,
2013-06-17 20:40:00,68.6,67.7,29.90,South,178,1.0,5.0,97,0.26,,SKC,0.96,VWS V13.00,2013-06-18 01:40:00,
2013-06-17 20:45:00,68.7,67.8,29.90,SSE,162,1.0,6.0,97,0.26,,SKC,0.96,VWS V13.00,2013-06-18 01:45:00,
2013-06-17 20:50:00,68.9,68.0,29.90,SSE,153,1.0,6.0,97,0.26,,SKC,0.96,VWS V13.00,2013-06-18 01:50:00,
2013-06-17 20:55:00,69.0,68.4,29.89,SSE,153,0.0,6.0,98,0.27,,SKC,0.97,VWS V13.00,2013-06-18 01:55:00,
2013-06-17 21:01:00,69.2,68.6,29.89,SE,145,0.0,6.0,98,0.27,,SKC,0.97,VWS V13.00,2013-06-18 02:01:00,
2013-06-17 21:06:00,69.4,68.8,29.88,ESE,107,0.0,3.0,98,0.06,,SKC,0.98,VWS V13.00,2013-06-18 02:06:00,
2013-06-17 21:11:00,69.6,69.0,29.88,East,98,0.0,3.0,98,0.06,,SKC,0.98,VWS V13.00,2013-06-18 02:11:00,
2013-06-17 21:16:00,69.8,69.2,29.88,NE,49,2.0,4.0,98,0.06,,SKC,0.98,VWS V13.00,2013-06-18 02:16:00,
2013-06-17 21:21:00,69.6,68.7,29.88,NE,49,1.0,4.0,97,0.06,,SKC,0.98,VWS V13.00,2013-06-18 02:21:00,
2013-06-17 21:26:00,69.5,68.6,29.89,NE,49,0.0,4.0,97,0.06,,SKC,0.98,VWS V13.00,2013-06-18 02:26:00,
2013-06-17 21:31:00,69.4,68.5,29.89,NE,49,0.0,4.0,97,0.06,,SKC,0.98,VWS V13.00,2013-06-18 02:31:00,
2013-06-17 21:36:00,69.3,68.4,29.89,NE,49,0.0,0.0,97,0.03,,SKC,0.98,VWS V13.00,2013-06-18 02:36:00,
2013-06-17 21:41:00,69.2,68.6,29.89,NE,49,0.0,0.0,98,0.03,,SKC,0.98,VWS V13.00,2013-06-18 02:41:00,
2013-06-17 21:46:00,69.2,68.6,29.89,NE,49,0.0,0.0,98,0.03,,SKC,0.98,VWS V13.00,2013-06-18 02:46:00,
2013-06-17 21:51:00,69.2,68.6,29.89,NE,49,0.0,0.0,98,0.03,,SKC,0.98,VWS V13.00,2013-06-18 02:51:00,
2013-06-17 21:56:00,69.2,68.6,29.88,NE,49,0.0,0.0,98,0.03,,SKC,0.98,VWS V13.00,2013-06-18 02:56:00,
2013-06-17 22:01:00,69.2,68.6,29.89,NE,49,0.0,0.0,98,0.03,,SKC,0.98,VWS V13.00,2013-06-18 03:01:00,
2013-06-17 22:06:00,69.2,68.6,29.88,NE,49,0.0,0.0,98,0.00,,SKC,0.98,VWS V13.00,2013-06-18 03:06:00,
2013-06-17 22:11:00,69.0,68.4,29.88,NE,49,0.0,0.0,98,0.00,,SKC,0.98,VWS V13.00,2013-06-18 03:11:00,
2013-06-17 22:16:00,68.9,68.3,29.88,NE,49,0.0,0.0,98,0.00,,SKC,0.98,VWS V13.00,2013-06-18 03:16:00,
2013-06-17 22:21:00,69.0,68.4,29.88,South,187,0.0,5.0,98,0.00,,SKC,0.98,VWS V13.00,2013-06-18 03:21:00,
2013-06-17 22:26:00,69.2,68.9,29.88,South,186,2.0,5.0,99,0.00,,SKC,0.98,VWS V13.00,2013-06-18 03:26:00,
2013-06-17 22:31:00,69.4,69.1,29.88,SSW,202,4.0,8.0,99,0.00,,SKC,0.98,VWS V13.00,2013-06-18 03:31:00,
2013-06-17 22:36:00,69.5,68.9,29.88,South,190,6.0,7.0,98,0.00,,SKC,0.98,VWS V13.00,2013-06-18 03:36:00,
2013-06-17 22:41:00,69.6,69.0,29.87,South,181,2.0,7.0,98,0.00,,SKC,0.98,VWS V13.00,2013-06-18 03:41:00,
2013-06-17 22:46:00,69.6,69.0,29.88,South,182,4.0,7.0,98,0.00,,SKC,0.98,VWS V13.00,2013-06-18 03:46:00,
2013-06-17 22:51:00,69.6,69.0,29.87,South,181,2.0,7.0,98,0.00,,SKC,0.98,VWS V13.00,2013-06-18 03:51:00,
2013-06-17 22:56:00,69.6,69.0,29.87,South,173,4.0,7.0,98,0.00,,SKC,0.98,VWS V13.00,2013-06-18 03:56:00,
2013-06-17 23:01:00,69.5,68.9,29.87,SSW,197,4.0,7.0,98,0.00,,SKC,0.98,VWS V13.00,2013-06-18 04:01:00,
2013-06-17 23:06:00,69.5,68.9,29.86,South,184,6.0,8.0,98,0.00,,SKC,0.98,VWS V13.00,2013-06-18 04:06:00,
2013-06-17 23:11:00,69.6,69.0,29.87,South,189,4.0,8.0,98,0.00,,SKC,0.98,VWS V13.00,2013-06-18 04:11:00,
2013-06-17 23:16:00,69.6,69.0,29.87,SSW,194,5.0,8.0,98,0.00,,SKC,0.98,VWS V13.00,2013-06-18 04:16:00,
2013-06-17 23:21:00,69.6,69.0,29.87,South,188,10.0,10.0,98,0.00,,SKC,0.98,VWS V13.00,2013-06-18 04:21:00,
2013-06-17 23:26:00,69.6,69.0,29.87,SSW,192,6.0,10.0,98,0.00,,SKC,0.98,VWS V13.00,2013-06-18 04:26:00,
2013-06-17 23:31:00,69.7,69.1,29.86,SSW,194,6.0,10.0,98,0.00,,SKC,0.98,VWS V13.00,2013-06-18 04:31:00,
2013-06-17 23:36:00,69.6,69.0,29.86,South,186,6.0,8.0,98,0.00,,SKC,0.98,VWS V13.00,2013-06-18 04:36:00,
2013-06-17 23:41:00,69.7,69.1,29.86,South,182,6.0,10.0,98,0.00,,SKC,0.98,VWS V13.00,2013-06-18 04:41:00,
2013-06-17 23:46:00,69.7,69.1,29.86,SSW,200,7.0,10.0,98,0.00,,SKC,0.98,VWS V13.00,2013-06-18 04:46:00,
2013-06-17 23:51:00,69.7,69.1,29.86,South,174,3.0,10.0,98,0.00,,SKC,0.98,VWS V13.00,2013-06-18 04:51:00,
2013-06-17 23:56:00,69.6,69.0,29.86,SSW,212,4.0,10.0,98,0.00,,SKC,0.98,VWS V13.00,2013-06-18 04:56:00,